Time;durP1;ratioP1;P1;durP2;ratioP2;P2;SDS_P1;SDS_P2;PMS_P1;PMS_P2;Temp;Humidity;BMP_temperature;BMP_pressure;BME280_temperature;BME280_humidity;BME280_pressure;Samples;Min_cycle;Max_cycle;Signal;HPM_P1;HPM_P2
2020/12/17 00:00:19;;;;;;;12.83;7.93;;;10.30;90.50;;;;;;5058855;28;20502;-83
2020/12/17 00:02:45;;;;;;;13.10;7.57;;;10.30;90.50;;;;;;5056938;28;20162;-85
2020/12/17 00:05:11;;;;;;;11.13;7.00;;;10.30;90.50;;;;;;5053062;28;20568;-83
2020/12/17 00:07:37;;;;;;;11.27;7.37;;;10.30;90.60;;;;;;5065796;28;20070;-84
2020/12/17 00:10:06;;;;;;;13.10;7.50;;;10.30;90.80;;;;;;5058331;28;20037;-84
2020/12/17 00:12:35;;;;;;;11.00;7.10;;;10.30;90.60;;;;;;5074374;28;20476;-85
2020/12/17 00:15:02;;;;;;;13.20;8.03;;;10.30;90.60;;;;;;5061713;28;20024;-86
2020/12/17 00:17:28;;;;;;;13.23;7.60;;;10.30;90.60;;;;;;5065986;28;20111;-84
2020/12/17 00:19:54;;;;;;;14.83;8.17;;;10.30;90.60;;;;;;5053765;28;20059;-86
2020/12/17 00:22:19;;;;;;;14.43;8.43;;;10.30;90.60;;;;;;5030808;28;20460;-85
2020/12/17 00:24:45;;;;;;;11.10;7.50;;;10.30;90.70;;;;;;5049772;28;20526;-83
2020/12/17 00:27:10;;;;;;;11.80;7.60;;;10.30;90.90;;;;;;5068299;28;20580;-83
2020/12/17 00:29:36;;;;;;;11.23;7.03;;;10.30;90.70;;;;;;5053055;28;20040;-84
2020/12/17 00:32:01;;;;;;;12.50;7.60;;;10.20;90.70;;;;;;5053607;28;20116;-84
2020/12/17 00:34:27;;;;;;;12.80;7.40;;;10.30;90.70;;;;;;5036946;28;20473;-84
2020/12/17 00:36:54;;;;;;;11.67;7.97;;;10.20;90.70;;;;;;5036313;28;20044;-83
2020/12/17 00:39:20;;;;;;;13.40;7.50;;;10.30;90.70;;;;;;5051471;28;20025;-84
2020/12/17 00:41:47;;;;;;;11.17;6.93;;;10.30;90.70;;;;;;5075874;28;20468;-83
2020/12/17 00:44:12;;;;;;;12.03;6.67;;;10.20;90.60;;;;;;5070482;28;20383;-85
2020/12/17 00:46:38;;;;;;;11.27;7.20;;;10.40;90.70;;;;;;5054451;28;20120;-84
2020/12/17 00:49:04;;;;;;;13.07;7.73;;;10.30;90.60;;;;;;5068122;28;20032;-85
2020/12/17 00:51:29;;;;;;;13.60;7.20;;;10.30;90.60;;;;;;5050394;28;20033;-84
2020/12/17 00:53:55;;;;;;;12.47;6.50;;;10.30;90.60;;;;;;5069510;28;20037;-84
2020/12/17 00:56:20;;;;;;;10.17;6.70;;;10.30;90.50;;;;;;5022603;28;20064;-85
2020/12/17 00:58:46;;;;;;;12.93;6.83;;;10.30;90.50;;;;;;5057581;28;20040;-85
2020/12/17 01:01:12;;;;;;;12.67;6.00;;;10.40;90.50;;;;;;5046498;28;20041;-83
2020/12/17 01:03:37;;;;;;;11.47;6.53;;;10.40;90.40;;;;;;5038116;28;20029;-82
2020/12/17 01:06:07;;;;;;;11.57;6.50;;;10.30;90.40;;;;;;5065320;28;20035;-84
2020/12/17 01:08:33;;;;;;;11.90;6.70;;;10.40;90.40;;;;;;5070255;28;20032;-82
2020/12/17 01:10:59;;;;;;;11.90;7.00;;;10.40;90.40;;;;;;5030666;28;20048;-83
2020/12/17 01:13:24;;;;;;;10.67;6.83;;;10.30;90.40;;;;;;5062144;28;20404;-85
2020/12/17 01:15:50;;;;;;;10.77;7.00;;;10.40;90.40;;;;;;5028751;28;20025;-85
2020/12/17 01:18:15;;;;;;;13.83;6.47;;;10.40;90.30;;;;;;5068554;28;20403;-83
2020/12/17 01:20:41;;;;;;;12.07;6.90;;;10.40;90.30;;;;;;5049048;28;20025;-84
2020/12/17 01:23:07;;;;;;;12.53;7.13;;;10.40;90.30;;;;;;5068523;28;20044;-84
2020/12/17 01:25:32;;;;;;;10.17;6.83;;;10.40;90.20;;;;;;5052582;28;20457;-82
2020/12/17 01:27:58;;;;;;;13.77;7.47;;;10.40;90.20;;;;;;5038784;28;20028;-84
2020/12/17 01:30:24;;;;;;;13.73;6.63;;;10.40;90.10;;;;;;5049210;28;20083;-84
2020/12/17 01:32:52;;;;;;;10.63;6.27;;;10.40;90.10;;;;;;5068872;28;20037;-86
2020/12/17 01:35:18;;;;;;;11.20;6.97;;;10.30;90.00;;;;;;5056556;28;20476;-85
2020/12/17 01:37:44;;;;;;;11.17;6.57;;;10.40;90.00;;;;;;5061694;28;20162;-83
2020/12/17 01:40:10;;;;;;;10.83;6.57;;;10.30;90.20;;;;;;5045072;28;20031;-84
2020/12/17 01:42:35;;;;;;;11.93;6.90;;;10.40;89.80;;;;;;5054642;28;20044;-82
2020/12/17 01:45:01;;;;;;;11.23;6.13;;;10.40;89.80;;;;;;5063363;28;20024;-84
2020/12/17 01:47:37;;;;;;;10.20;6.53;;;10.40;89.80;;;;;;5038509;28;20031;-80
2020/12/17 01:50:06;;;;;;;11.57;7.17;;;10.40;89.70;;;;;;5058972;28;20093;-85
2020/12/17 01:52:32;;;;;;;12.73;7.67;;;10.40;89.70;;;;;;5068708;28;20020;-84
2020/12/17 01:54:58;;;;;;;12.23;7.10;;;10.50;89.60;;;;;;5049311;28;20075;-84
2020/12/17 01:57:31;;;;;;;10.80;6.47;;;10.30;89.50;;;;;;5043445;28;20033;-76
2020/12/17 02:00:03;;;;;;;12.83;7.07;;;10.50;89.60;;;;;;5057067;28;20033;-76
2020/12/17 02:02:31;;;;;;;13.80;7.00;;;10.50;89.70;;;;;;5059715;28;20106;-75
2020/12/17 02:04:59;;;;;;;11.03;7.27;;;10.40;89.70;;;;;;5062890;28;20067;-76
2020/12/17 02:07:24;;;;;;;11.23;7.33;;;10.40;89.80;;;;;;5056454;28;20040;-77
2020/12/17 02:09:50;;;;;;;12.07;7.03;;;10.50;90.00;;;;;;5053262;28;20048;-76
2020/12/17 02:12:16;;;;;;;11.20;7.10;;;10.40;90.00;;;;;;5055437;28;20025;-76
2020/12/17 02:14:41;;;;;;;14.23;7.77;;;10.40;90.00;;;;;;5043977;28;20041;-84
2020/12/17 02:17:07;;;;;;;13.60;7.87;;;10.40;90.10;;;;;;5065412;28;20063;-84
2020/12/17 02:19:33;;;;;;;12.13;7.73;;;10.40;90.20;;;;;;5060348;28;20119;-86
2020/12/17 02:21:59;;;;;;;10.90;7.30;;;10.40;90.20;;;;;;5059743;28;20476;-87
2020/12/17 02:24:25;;;;;;;13.03;7.23;;;10.40;90.30;;;;;;5027645;28;20166;-85
2020/12/17 02:26:51;;;;;;;12.93;7.73;;;10.40;90.40;;;;;;5052462;28;20033;-85
2020/12/17 02:29:18;;;;;;;12.80;8.07;;;10.40;90.40;;;;;;5058500;28;20024;-87
2020/12/17 02:31:44;;;;;;;13.23;7.20;;;10.30;90.40;;;;;;5050045;28;20060;-86
2020/12/17 02:34:10;;;;;;;12.33;7.30;;;10.40;90.50;;;;;;5036682;28;20538;-85
2020/12/17 02:36:35;;;;;;;11.13;6.70;;;10.30;90.50;;;;;;5044066;28;20040;-82
2020/12/17 02:39:01;;;;;;;13.10;7.40;;;10.30;90.50;;;;;;5051372;28;20029;-84
2020/12/17 02:41:27;;;;;;;11.20;6.40;;;10.30;90.50;;;;;;5055307;28;20087;-84
2020/12/17 02:43:53;;;;;;;11.57;7.40;;;10.30;90.50;;;;;;5044829;28;20446;-88
2020/12/17 02:46:19;;;;;;;13.07;7.70;;;10.30;90.60;;;;;;5055051;28;20021;-85
2020/12/17 02:48:51;;;;;;;11.80;6.67;;;10.30;90.50;;;;;;5073902;28;20029;-85
2020/12/17 02:51:18;;;;;;;11.30;7.20;;;10.30;90.60;;;;;;5062421;28;20120;-85
2020/12/17 02:53:43;;;;;;;13.17;7.70;;;10.20;90.50;;;;;;5063580;28;20381;-85
2020/12/17 02:56:15;;;;;;;12.17;6.93;;;10.30;90.60;;;;;;5063395;28;20082;-84
2020/12/17 02:58:41;;;;;;;11.03;6.40;;;10.30;90.60;;;;;;5070224;28;20593;-87
2020/12/17 03:01:07;;;;;;;13.70;6.37;;;10.30;90.60;;;;;;5070922;28;20060;-84
2020/12/17 03:03:33;;;;;;;10.00;6.40;;;10.30;90.60;;;;;;5060692;28;20029;-85
2020/12/17 03:05:58;;;;;;;10.20;6.33;;;10.30;90.70;;;;;;5063514;28;20135;-84
2020/12/17 03:08:26;;;;;;;11.90;7.47;;;10.30;90.70;;;;;;5072236;28;20029;-85
2020/12/17 03:10:53;;;;;;;11.47;7.13;;;10.30;90.70;;;;;;5058350;28;20035;-85
2020/12/17 03:13:19;;;;;;;11.80;7.60;;;10.30;90.70;;;;;;5064608;28;20030;-86
2020/12/17 03:15:44;;;;;;;11.57;7.30;;;10.30;90.70;;;;;;5049783;28;20446;-85
2020/12/17 03:18:10;;;;;;;11.00;7.40;;;10.30;90.70;;;;;;5052532;28;20080;-84
2020/12/17 03:20:36;;;;;;;11.40;7.07;;;10.30;90.70;;;;;;5054041;28;20526;-85
2020/12/17 03:23:01;;;;;;;9.47;5.80;;;10.30;90.70;;;;;;5049318;28;20055;-84
2020/12/17 03:25:27;;;;;;;12.20;6.27;;;10.30;90.70;;;;;;5054438;28;20380;-83
2020/12/17 03:27:52;;;;;;;9.57;5.93;;;10.30;90.70;;;;;;5047905;28;20056;-85
2020/12/17 03:30:18;;;;;;;11.47;6.20;;;10.40;90.70;;;;;;5051557;28;20025;-84
2020/12/17 03:32:43;;;;;;;13.17;5.97;;;10.40;90.70;;;;;;5062523;28;20374;-83
2020/12/17 03:35:09;;;;;;;9.63;6.47;;;10.40;90.70;;;;;;5071022;28;20115;-85
2020/12/17 03:37:35;;;;;;;12.47;6.27;;;10.50;90.70;;;;;;5037505;28;20039;-85
2020/12/17 03:40:00;;;;;;;11.23;5.73;;;10.30;90.60;;;;;;5044823;28;20025;-85
2020/12/17 03:42:26;;;;;;;10.40;5.93;;;10.40;90.70;;;;;;5069347;28;20033;-83
2020/12/17 03:44:52;;;;;;;9.47;6.23;;;10.40;90.70;;;;;;5061978;28;20373;-85
2020/12/17 03:47:17;;;;;;;12.13;6.57;;;10.30;90.60;;;;;;5057301;28;20135;-86
2020/12/17 03:49:43;;;;;;;12.87;6.83;;;10.40;90.70;;;;;;5029480;28;20086;-86
2020/12/17 03:52:10;;;;;;;10.30;6.80;;;10.40;90.70;;;;;;5053924;28;20037;-86
2020/12/17 03:54:36;;;;;;;12.47;6.90;;;10.40;90.70;;;;;;5046446;28;20037;-85
2020/12/17 03:57:01;;;;;;;11.67;6.57;;;10.50;90.90;;;;;;5063660;28;20476;-85
2020/12/17 03:59:27;;;;;;;9.53;6.60;;;10.40;90.90;;;;;;5053754;28;20170;-84
2020/12/17 04:01:52;;;;;;;11.90;7.30;;;10.40;90.90;;;;;;5028690;28;20037;-85
2020/12/17 04:04:18;;;;;;;8.80;5.70;;;10.40;91.00;;;;;;5060612;28;20528;-87
2020/12/17 04:06:44;;;;;;;11.47;5.73;;;10.40;91.00;;;;;;5061923;28;20037;-85
2020/12/17 04:09:09;;;;;;;9.70;6.40;;;10.40;91.10;;;;;;5024427;28;20051;-85
2020/12/17 04:11:35;;;;;;;12.73;6.97;;;10.40;91.10;;;;;;5056578;28;20111;-85
2020/12/17 04:14:01;;;;;;;12.60;6.17;;;10.40;91.10;;;;;;5035244;28;20021;-85
2020/12/17 04:16:26;;;;;;;9.67;6.13;;;10.40;91.10;;;;;;5044880;28;20123;-84
2020/12/17 04:18:52;;;;;;;10.57;5.40;;;10.30;91.10;;;;;;5060446;28;20021;-85
2020/12/17 04:21:17;;;;;;;10.83;6.43;;;10.40;91.20;;;;;;5051385;28;20025;-87
2020/12/17 04:23:43;;;;;;;10.93;6.17;;;10.40;91.30;;;;;;5062691;28;20039;-84
2020/12/17 04:26:15;;;;;;;10.60;6.23;;;10.40;91.40;;;;;;5065020;28;20103;-82
2020/12/17 04:28:41;;;;;;;12.77;7.07;;;10.40;91.60;;;;;;5065703;28;20100;-84
2020/12/17 04:31:07;;;;;;;11.87;6.50;;;10.30;91.80;;;;;;5066334;28;20051;-82
2020/12/17 04:33:33;;;;;;;11.10;7.23;;;10.30;92.10;;;;;;5072797;28;20373;-85
2020/12/17 04:35:58;;;;;;;11.43;7.00;;;10.30;92.20;;;;;;5073540;28;20032;-84
2020/12/17 04:38:24;;;;;;;10.37;6.60;;;10.30;92.20;;;;;;5028154;28;20353;-84
2020/12/17 04:40:49;;;;;;;12.70;6.40;;;10.20;92.50;;;;;;5042290;28;20029;-83
2020/12/17 04:43:15;;;;;;;15.70;7.03;;;10.30;92.60;;;;;;5068342;28;20032;-81
2020/12/17 04:45:41;;;;;;;15.13;8.03;;;10.20;92.80;;;;;;5068073;28;20429;-83
2020/12/17 04:48:07;;;;;;;13.03;7.57;;;10.20;93.00;;;;;;5064041;28;20036;-85
2020/12/17 04:50:34;;;;;;;12.90;8.40;;;10.20;93.10;;;;;;5050771;28;20123;-83
2020/12/17 04:53:02;;;;;;;14.00;7.77;;;10.10;93.20;;;;;;5062815;28;20031;-83
2020/12/17 04:55:29;;;;;;;13.03;8.07;;;10.10;93.60;;;;;;5052508;28;20035;-82
2020/12/17 04:57:58;;;;;;;12.83;8.03;;;10.10;93.60;;;;;;5057827;28;20067;-86
2020/12/17 05:00:24;;;;;;;14.60;8.10;;;10.10;93.50;;;;;;5068374;28;20472;-83
2020/12/17 05:02:55;;;;;;;13.10;7.70;;;10.00;93.70;;;;;;5072354;28;20083;-83
2020/12/17 05:05:21;;;;;;;15.00;7.73;;;10.10;93.80;;;;;;5073009;28;20052;-83
2020/12/17 05:07:47;;;;;;;14.73;8.50;;;10.00;93.80;;;;;;5066973;28;20033;-85
2020/12/17 05:10:12;;;;;;;15.33;8.37;;;10.00;94.10;;;;;;5035676;28;20127;-83
2020/12/17 05:12:38;;;;;;;15.13;8.47;;;10.00;94.10;;;;;;5064523;28;20365;-85
2020/12/17 05:15:04;;;;;;;15.83;8.67;;;10.10;94.30;;;;;;5052156;28;20423;-84
2020/12/17 05:17:31;;;;;;;15.60;8.77;;;10.10;94.40;;;;;;5062496;28;20025;-77
2020/12/17 05:19:57;;;;;;;15.83;9.77;;;10.00;94.90;;;;;;5071400;28;20494;-77
2020/12/17 05:22:24;;;;;;;16.87;8.90;;;10.00;94.60;;;;;;5071837;28;20107;-78
2020/12/17 05:24:49;;;;;;;15.07;9.70;;;9.90;94.80;;;;;;5063693;28;20494;-76
2020/12/17 05:27:15;;;;;;;16.30;9.73;;;9.90;94.90;;;;;;5040010;28;20071;-77
2020/12/17 05:29:42;;;;;;;18.87;11.10;;;9.80;95.10;;;;;;5050511;28;20033;-77
2020/12/17 05:32:09;;;;;;;14.43;9.80;;;9.90;95.30;;;;;;5058471;28;20483;-77
2020/12/17 05:34:36;;;;;;;20.57;11.33;;;9.90;95.40;;;;;;5064943;28;20120;-76
2020/12/17 05:37:05;;;;;;;16.07;9.97;;;9.90;95.50;;;;;;5036329;28;20107;-77
2020/12/17 05:39:30;;;;;;;19.00;11.13;;;9.80;95.40;;;;;;5060217;28;20090;-77
2020/12/17 05:41:56;;;;;;;18.13;12.53;;;9.90;95.60;;;;;;5037423;28;20056;-76
2020/12/17 05:44:25;;;;;;;17.07;11.87;;;9.90;95.70;;;;;;5066352;28;20018;-80
2020/12/17 05:46:51;;;;;;;18.10;11.17;;;9.80;95.80;;;;;;5051545;28;20599;-76
2020/12/17 05:49:23;;;;;;;18.10;11.97;;;9.80;95.80;;;;;;5067899;28;20108;-77
2020/12/17 05:51:50;;;;;;;18.70;12.13;;;9.80;95.80;;;;;;5060814;28;20021;-77
2020/12/17 05:54:34;;;;;;;18.00;12.33;;;9.80;95.80;;;;;;5072388;28;20016;-77
2020/12/17 05:57:06;;;;;;;18.75;11.05;;;9.90;95.80;;;;;;5068276;28;20013;-77
2020/12/17 05:59:32;;;;;;;16.90;11.13;;;9.80;95.90;;;;;;5070734;28;20043;-76
2020/12/17 06:01:58;;;;;;;18.43;12.90;;;9.70;95.90;;;;;;5062988;28;20492;-77
2020/12/17 06:04:23;;;;;;;18.03;11.20;;;9.80;95.90;;;;;;5030594;28;20424;-77
2020/12/17 06:06:49;;;;;;;24.03;13.00;;;9.80;95.90;;;;;;5046594;28;20024;-77
2020/12/17 06:09:20;;;;;;;18.93;12.97;;;9.80;95.90;;;;;;5068592;28;20039;-77
2020/12/17 06:11:47;;;;;;;21.30;13.83;;;9.80;96.10;;;;;;5056632;28;20028;-77
2020/12/17 06:14:14;;;;;;;19.43;12.83;;;9.80;96.10;;;;;;5066605;28;20365;-78
2020/12/17 06:16:46;;;;;;;19.27;13.00;;;9.80;96.10;;;;;;5045341;28;20091;-77
2020/12/17 06:19:15;;;;;;;21.53;14.87;;;9.90;96.20;;;;;;5066659;28;20469;-76
2020/12/17 06:21:41;;;;;;;21.33;15.03;;;9.80;96.20;;;;;;5062426;28;20353;-77
2020/12/17 06:24:07;;;;;;;24.80;15.47;;;9.90;96.30;;;;;;5065349;28;20426;-77
2020/12/17 06:26:40;;;;;;;21.70;15.20;;;9.90;96.30;;;;;;5060445;28;20441;-79
2020/12/17 06:29:20;;;;;;;22.33;15.70;;;9.80;96.20;;;;;;5061083;28;20652;-77
2020/12/17 06:32:15;;;;;;;23.10;15.83;;;9.90;96.30;;;;;;5066073;28;20083;-77
2020/12/17 06:34:42;;;;;;;24.97;17.13;;;9.80;96.30;;;;;;5056500;28;20037;-77
2020/12/17 06:37:11;;;;;;;23.47;16.10;;;9.80;96.30;;;;;;5056205;28;20047;-77
2020/12/17 06:39:45;;;;;;;24.03;16.57;;;9.90;96.30;;;;;;5062332;28;20029;-76
2020/12/17 06:42:39;;;;;;;22.65;16.42;;;9.80;96.30;;;;;;5054802;28;20021;-78
2020/12/17 06:45:24;;;;;;;;;;;9.80;96.30;;;;;;5055225;28;20021;-78
2020/12/17 06:47:50;;;;;;;30.38;18.63;;;9.80;96.20;;;;;;5067157;28;19911;-78
2020/12/17 06:50:20;;;;;;;28.67;19.60;;;9.90;96.30;;;;;;5066407;28;20116;-78
2020/12/17 06:53:05;;;;;;;28.87;19.10;;;9.70;96.30;;;;;;5059093;28;20037;-78
2020/12/17 06:55:50;;;;;;;28.90;18.63;;;9.70;96.20;;;;;;5056094;28;20040;-78
2020/12/17 06:58:27;;;;;;;28.80;18.85;;;9.70;96.20;;;;;;5066984;28;20073;-75
2020/12/17 07:00:54;;;;;;;28.77;18.73;;;9.70;96.20;;;;;;5058618;28;20534;-76
2020/12/17 07:03:48;;;;;;;30.03;19.70;;;9.70;96.20;;;;;;5062606;28;20032;-76
2020/12/17 07:06:24;;;;;;;30.42;20.77;;;9.60;96.20;;;;;;5065450;28;20021;-76
2020/12/17 07:08:55;;;;;;;29.27;21.27;;;9.60;96.20;;;;;;5048406;28;21069;-76
2020/12/17 07:11:40;;;;;;;31.83;21.70;;;9.60;96.20;;;;;;5053479;28;20480;-76
2020/12/17 07:14:09;;;;;;;31.03;21.67;;;9.60;96.20;;;;;;5054602;28;20112;-76
2020/12/17 07:16:37;;;;;;;33.47;21.80;;;9.50;96.20;;;;;;5055933;28;20484;-75
2020/12/17 07:19:16;;;;;;;33.23;23.17;;;9.70;96.20;;;;;;5055738;28;20029;-75
2020/12/17 07:21:42;;;;;;;32.43;21.83;;;9.60;96.20;;;;;;5054739;28;20452;-76
2020/12/17 07:24:08;;;;;;;34.83;23.73;;;9.60;96.20;;;;;;5055604;28;20110;-76
2020/12/17 07:26:35;;;;;;;34.40;23.60;;;9.60;96.20;;;;;;5037701;28;20044;-75
2020/12/17 07:29:00;;;;;;;32.53;22.73;;;9.50;96.20;;;;;;5055043;28;20029;-76
2020/12/17 07:31:27;;;;;;;38.90;24.70;;;9.60;96.20;;;;;;5054274;28;20032;-76
2020/12/17 07:33:54;;;;;;;35.23;23.33;;;9.60;96.20;;;;;;5054088;28;20380;-76
2020/12/17 07:36:43;;;;;;;36.83;25.93;;;9.60;96.20;;;;;;5055339;28;20029;-77
2020/12/17 07:39:09;;;;;;;37.03;25.73;;;9.60;96.20;;;;;;5055488;28;20021;-75
2020/12/17 07:41:35;;;;;;;36.33;24.97;;;9.60;96.20;;;;;;5053840;28;20052;-75
2020/12/17 07:44:00;;;;;;;37.43;24.77;;;9.60;96.20;;;;;;5062617;28;20040;-74
2020/12/17 07:46:42;;;;;;;39.07;24.60;;;9.70;96.20;;;;;;5060640;28;20040;-74
2020/12/17 07:49:30;;;;;;;38.13;26.07;;;9.80;96.20;;;;;;5053886;28;20112;-75
2020/12/17 07:51:56;;;;;;;35.97;24.47;;;9.60;96.10;;;;;;5055157;28;20025;-75
2020/12/17 07:54:22;;;;;;;36.17;24.33;;;9.70;96.20;;;;;;5054918;28;20029;-74
2020/12/17 07:56:59;;;;;;;33.90;23.83;;;9.70;96.10;;;;;;5054941;28;20439;-74
2020/12/17 07:59:25;;;;;;;31.90;22.63;;;9.70;96.10;;;;;;5055056;28;20112;-75
2020/12/17 08:01:58;;;;;;;34.63;25.23;;;9.70;96.10;;;;;;5054796;28;20552;-75
2020/12/17 08:04:24;;;;;;;35.75;25.90;;;9.60;96.10;;;;;;5053701;28;20084;-75
2020/12/17 08:06:50;;;;;;;35.40;26.30;;;9.80;96.10;;;;;;5054964;28;20398;-75
2020/12/17 08:09:17;;;;;;;37.03;26.90;;;9.80;96.10;;;;;;5053430;28;20057;-75
2020/12/17 08:11:54;;;;;;;35.33;25.67;;;9.70;96.00;;;;;;5054790;28;20021;-75
2020/12/17 08:14:22;;;;;;;35.03;25.90;;;9.80;96.00;;;;;;5053419;28;20488;-75
2020/12/17 08:16:48;;;;;;;38.03;26.30;;;9.80;96.00;;;;;;5053250;28;20504;-74
2020/12/17 08:19:14;;;;;;;32.67;23.03;;;9.80;96.00;;;;;;5054753;28;20437;-75
2020/12/17 08:21:42;;;;;;;34.17;25.47;;;9.80;95.90;;;;;;5054524;28;20053;-75
2020/12/17 08:24:11;;;;;;;32.03;23.37;;;9.80;95.90;;;;;;5054573;28;20053;-75
2020/12/17 08:26:37;;;;;;;33.30;23.17;;;9.80;95.90;;;;;;5036620;28;20029;-77
2020/12/17 08:29:02;;;;;;;30.83;24.47;;;9.80;95.90;;;;;;5036515;28;20036;-74
2020/12/17 08:31:29;;;;;;;29.50;22.97;;;9.80;95.80;;;;;;5058001;28;20060;-75
2020/12/17 08:33:57;;;;;;;31.20;22.87;;;9.80;95.80;;;;;;5074294;28;20051;-75
2020/12/17 08:36:27;;;;;;;28.30;21.53;;;9.80;95.80;;;;;;5073949;28;20153;-75
2020/12/17 08:39:05;;;;;;;27.03;20.73;;;9.90;95.70;;;;;;5074121;28;20027;-76
2020/12/17 08:41:36;;;;;;;26.77;19.83;;;9.80;95.70;;;;;;5063335;28;20021;-75
2020/12/17 08:44:05;;;;;;;25.97;19.13;;;9.80;95.70;;;;;;5072372;28;20495;-76
2020/12/17 08:46:47;;;;;;;24.77;19.17;;;9.80;95.60;;;;;;5044521;28;20106;-76
2020/12/17 08:49:14;;;;;;;23.83;18.23;;;9.90;95.60;;;;;;5054173;28;20476;-76
2020/12/17 08:51:45;;;;;;;24.37;18.63;;;9.90;95.80;;;;;;5054282;28;20154;-76
2020/12/17 08:54:42;;;;;;;24.27;17.77;;;9.80;95.40;;;;;;5054159;28;20029;-75
2020/12/17 08:57:11;;;;;;;21.00;15.83;;;9.90;95.50;;;;;;5052553;28;20106;-77
2020/12/17 08:59:37;;;;;;;25.67;19.17;;;10.00;95.40;;;;;;5052911;28;20019;-76
2020/12/17 09:02:04;;;;;;;24.50;19.03;;;10.00;95.40;;;;;;5052378;28;20393;-76
2020/12/17 09:04:29;;;;;;;22.30;17.13;;;9.80;95.30;;;;;;5055363;28;20029;-75
2020/12/17 09:06:57;;;;;;;24.70;17.40;;;9.90;95.30;;;;;;5040004;28;20442;-77
2020/12/17 09:09:25;;;;;;;22.27;15.80;;;9.90;95.30;;;;;;5053826;28;20043;-76
2020/12/17 09:11:52;;;;;;;23.53;16.70;;;9.90;95.30;;;;;;5053859;28;20032;-76
2020/12/17 09:14:21;;;;;;;23.77;16.40;;;9.80;95.20;;;;;;5064845;28;20012;-76
2020/12/17 09:16:51;;;;;;;21.77;16.77;;;9.90;95.20;;;;;;5052692;28;20033;-77
2020/12/17 09:19:17;;;;;;;22.00;16.40;;;9.90;95.20;;;;;;5049916;28;20440;-75
2020/12/17 09:21:55;;;;;;;21.33;14.87;;;9.90;95.20;;;;;;5052277;28;20025;-76
2020/12/17 09:24:28;;;;;;;20.77;15.10;;;10.00;95.10;;;;;;5052466;28;20056;-75
2020/12/17 09:26:55;;;;;;;23.33;16.08;;;9.90;95.10;;;;;;5053596;28;20423;-75
2020/12/17 09:29:21;;;;;;;20.77;13.93;;;9.90;95.10;;;;;;5052132;28;20083;-76
2020/12/17 09:31:47;;;;;;;18.67;13.67;;;9.90;95.00;;;;;;5061497;28;20020;-79
2020/12/17 09:34:14;;;;;;;18.63;12.27;;;10.00;95.00;;;;;;5055442;28;20035;-76
2020/12/17 09:36:42;;;;;;;19.00;12.60;;;10.00;94.80;;;;;;5071633;28;20040;-77
2020/12/17 09:39:13;;;;;;;15.53;11.93;;;10.00;94.70;;;;;;5071662;28;20085;-76
2020/12/17 09:41:54;;;;;;;15.33;10.40;;;10.00;94.40;;;;;;5053299;28;20075;-76
2020/12/17 09:44:40;;;;;;;18.20;11.73;;;10.00;94.50;;;;;;5054850;28;20107;-76
2020/12/17 09:47:05;;;;;;;14.73;9.67;;;10.00;93.90;;;;;;5054484;28;20132;-77
2020/12/17 09:49:36;;;;;;;14.60;9.60;;;10.00;93.90;;;;;;5058249;28;20061;-75
2020/12/17 09:52:10;;;;;;;13.27;9.13;;;9.90;93.80;;;;;;5053782;28;20025;-76
2020/12/17 09:54:42;;;;;;;13.33;7.50;;;10.20;94.40;;;;;;5055893;28;20400;-77
2020/12/17 09:57:10;;;;;;;13.60;6.40;;;10.50;94.50;;;;;;5059615;28;20020;-76
2020/12/17 09:59:37;;;;;;;11.17;7.13;;;10.60;93.90;;;;;;5075772;28;20017;-75
2020/12/17 10:02:04;;;;;;;13.37;6.60;;;10.60;93.40;;;;;;5075634;28;20129;-78
2020/12/17 10:04:31;;;;;;;12.60;6.50;;;10.60;92.50;;;;;;5059235;28;20241;-76
2020/12/17 10:06:57;;;;;;;9.10;5.33;;;10.70;92.80;;;;;;5075957;28;20482;-76
2020/12/17 10:09:23;;;;;;;11.30;4.35;;;10.90;93.20;;;;;;5075832;28;20079;-77
2020/12/17 10:11:54;;;;;;;7.07;3.95;;;11.30;93.20;;;;;;5075725;28;20029;-76
2020/12/17 10:14:20;;;;;;;10.35;4.18;;;11.60;92.80;;;;;;5077612;28;20480;-76
2020/12/17 10:16:46;;;;;;;10.32;4.20;;;11.70;91.50;;;;;;5058893;28;20035;-75
2020/12/17 10:19:12;;;;;;;9.70;4.88;;;11.70;90.60;;;;;;5076883;28;20025;-76
2020/12/17 10:21:39;;;;;;;11.52;4.43;;;11.60;90.40;;;;;;5075533;28;20380;-76
2020/12/17 10:24:05;;;;;;;7.60;4.82;;;11.40;89.50;;;;;;5077074;28;20012;-76
2020/12/17 10:26:31;;;;;;;10.80;5.03;;;11.30;89.80;;;;;;5076809;28;20487;-77
2020/12/17 10:28:58;;;;;;;8.43;4.50;;;11.20;90.00;;;;;;5076659;28;20024;-76
2020/12/17 10:31:27;;;;;;;11.10;5.47;;;11.10;89.90;;;;;;5076656;28;20111;-76
2020/12/17 10:33:54;;;;;;;11.43;5.67;;;11.00;89.90;;;;;;5059070;28;20021;-77
2020/12/17 10:36:19;;;;;;;10.67;4.40;;;10.90;89.80;;;;;;5076636;28;20027;-77
2020/12/17 10:38:45;;;;;;;10.50;5.17;;;11.00;90.30;;;;;;5059384;28;20392;-76
2020/12/17 10:41:11;;;;;;;9.47;4.70;;;10.90;90.10;;;;;;5042201;28;20384;-76
2020/12/17 10:43:37;;;;;;;12.30;6.40;;;10.80;90.20;;;;;;5076765;28;20021;-77
2020/12/17 10:46:03;;;;;;;13.70;4.90;;;10.90;90.00;;;;;;5058642;28;20538;-77
2020/12/17 10:48:29;;;;;;;12.77;5.20;;;10.90;89.60;;;;;;5058420;28;20154;-77
2020/12/17 10:50:54;;;;;;;10.77;4.97;;;10.80;89.50;;;;;;5058598;28;20110;-78
2020/12/17 10:53:20;;;;;;;13.73;4.50;;;10.90;90.00;;;;;;5076659;28;20031;-76
2020/12/17 10:55:46;;;;;;;9.87;4.13;;;10.90;90.10;;;;;;5075291;28;20028;-77
2020/12/17 10:58:12;;;;;;;9.20;4.53;;;11.00;90.20;;;;;;5058414;28;20028;-76
2020/12/17 11:00:39;;;;;;;8.20;4.00;;;11.20;90.30;;;;;;5058314;28;20116;-76
2020/12/17 11:03:06;;;;;;;7.73;3.53;;;11.30;90.10;;;;;;5074888;28;20041;-76
2020/12/17 11:05:32;;;;;;;8.87;3.63;;;11.50;90.00;;;;;;5043036;28;20036;-83
2020/12/17 11:07:58;;;;;;;7.82;3.13;;;11.70;89.80;;;;;;5066383;28;20112;-84
2020/12/17 11:10:23;;;;;;;5.63;3.00;;;12.00;90.00;;;;;;5059583;28;20519;-81
2020/12/17 11:12:49;;;;;;;7.97;3.00;;;12.20;89.40;;;;;;5068510;28;20097;-80
2020/12/17 11:15:14;;;;;;;6.57;2.83;;;12.60;88.90;;;;;;5055323;28;20033;-80
2020/12/17 11:17:40;;;;;;;8.00;2.53;;;12.90;88.20;;;;;;5055870;28;20036;-84
2020/12/17 11:20:06;;;;;;;6.13;2.67;;;13.10;87.10;;;;;;5067486;28;20032;-83
2020/12/17 11:22:31;;;;;;;8.07;2.72;;;13.20;85.70;;;;;;5056569;28;20050;-81
2020/12/17 11:24:57;;;;;;;10.52;3.42;;;13.20;83.20;;;;;;5024630;28;20028;-81
2020/12/17 11:27:23;;;;;;;7.68;2.75;;;13.40;82.80;;;;;;5025182;28;20056;-81
2020/12/17 11:29:48;;;;;;;5.82;2.17;;;13.50;81.40;;;;;;5039044;28;20030;-86
2020/12/17 11:32:14;;;;;;;9.65;2.80;;;13.60;80.80;;;;;;5055676;28;20041;-83
2020/12/17 11:34:39;;;;;;;6.97;2.83;;;13.60;80.40;;;;;;5057101;28;20039;-84
2020/12/17 11:37:05;;;;;;;7.13;2.35;;;13.70;80.50;;;;;;5038964;28;20040;-84
2020/12/17 11:39:30;;;;;;;6.78;3.40;;;13.80;80.00;;;;;;5023344;28;20485;-85
2020/12/17 11:41:56;;;;;;;9.85;2.90;;;13.60;77.70;;;;;;5040912;28;20021;-84
2020/12/17 11:44:24;;;;;;;10.48;4.07;;;13.40;77.60;;;;;;5023935;28;20446;-85
2020/12/17 11:46:52;;;;;;;8.25;2.80;;;13.20;78.30;;;;;;5056386;28;20115;-81
2020/12/17 11:49:18;;;;;;;7.78;3.63;;;13.00;79.10;;;;;;5054782;28;20070;-84
2020/12/17 11:51:43;;;;;;;10.65;3.53;;;12.80;79.10;;;;;;5038422;28;20033;-84
2020/12/17 11:54:09;;;;;;;10.05;4.20;;;12.70;79.40;;;;;;5054702;28;20424;-84
2020/12/17 11:56:34;;;;;;;9.90;3.60;;;12.40;80.10;;;;;;5021945;28;20033;-85
2020/12/17 11:59:00;;;;;;;10.18;4.15;;;12.30;80.80;;;;;;5056149;28;20017;-82
2020/12/17 12:01:30;;;;;;;9.15;4.30;;;12.20;81.30;;;;;;5066098;28;20044;-83
2020/12/17 12:03:55;;;;;;;9.98;3.72;;;12.10;81.70;;;;;;5058237;28;20021;-81
2020/12/17 12:06:21;;;;;;;10.70;3.80;;;12.00;81.80;;;;;;5042112;28;20379;-84
2020/12/17 12:08:46;;;;;;;9.57;4.00;;;12.00;82.40;;;;;;5075916;28;20025;-83
2020/12/17 12:11:12;;;;;;;10.00;4.23;;;12.10;82.70;;;;;;5055673;28;20354;-82
2020/12/17 12:13:37;;;;;;;8.45;3.33;;;12.20;82.80;;;;;;5054708;28;20100;-81
2020/12/17 12:16:03;;;;;;;14.05;3.67;;;12.30;81.50;;;;;;5038132;28;20546;-82
2020/12/17 12:18:29;;;;;;;10.95;3.88;;;12.30;81.20;;;;;;5070115;28;20064;-81
2020/12/17 12:20:55;;;;;;;7.57;3.65;;;12.30;81.10;;;;;;5037007;28;20032;-82
2020/12/17 12:23:21;;;;;;;10.32;3.55;;;12.20;80.80;;;;;;5053473;28;20056;-85
2020/12/17 12:25:47;;;;;;;11.87;4.67;;;12.20;80.70;;;;;;5020227;28;20044;-83
2020/12/17 12:28:12;;;;;;;11.93;4.70;;;12.00;80.70;;;;;;5053268;28;20039;-83
2020/12/17 12:30:38;;;;;;;11.47;4.20;;;12.00;81.10;;;;;;5020447;28;20422;-84
2020/12/17 12:33:03;;;;;;;12.82;5.10;;;11.80;81.60;;;;;;5020140;28;20029;-83
2020/12/17 12:35:29;;;;;;;11.90;4.70;;;11.70;81.80;;;;;;5054627;28;20029;-85
2020/12/17 12:37:55;;;;;;;14.93;4.43;;;11.70;82.30;;;;;;5056445;28;20032;-83
2020/12/17 12:40:20;;;;;;;14.27;4.60;;;11.70;82.50;;;;;;5039803;28;20025;-83